Time;durP1;ratioP1;P1;durP2;ratioP2;P2;SDS_P1;SDS_P2;PMS_P1;PMS_P2;Temp;Humidity;BMP_temperature;BMP_pressure;BME280_temperature;BME280_humidity;BME280_pressure;Samples;Min_cycle;Max_cycle;Signal;HPM_P1;HPM_P2
2021/12/09 00:01:22;;;;;;;;;;;;;;;;;;7391582;19;19918;-55
2021/12/09 00:03:53;;;;;;;;;;;;;;;;;;7391978;19;20030;-59
2021/12/09 00:06:25;;;;;;;;;;;;;;;;;;7393089;19;19914;-59
2021/12/09 00:08:54;;;;;;;;;;;;;;;;;;7391690;19;19928;-56
2021/12/09 00:11:21;;;;;;;;;;;;;;;;;;7393734;19;20323;-51
2021/12/09 00:13:49;;;;;;;;;;;;;;;;;;7393460;19;20252;-55
2021/12/09 00:16:16;;;;;;;;;;;;;;;;;;7399099;19;20289;-60
2021/12/09 00:18:43;;;;;;;;;;;;;;;;;;7399114;19;19915;-57
2021/12/09 00:21:11;;;;;;;;;;;;;;;;;;7399237;19;19929;-56
2021/12/09 00:23:38;;;;;;;;;;;;;;;;;;7399057;19;19925;-54
2021/12/09 00:26:06;;;;;;;;;;;;;;;;;;7397324;19;19938;-54
2021/12/09 00:28:33;;;;;;;;;;;;;;;;;;7399192;19;19955;-56
2021/12/09 00:31:01;;;;;;;;;;;;;;;;;;7398185;19;19915;-59
2021/12/09 00:33:28;;;;;;;;;;;;;;;;;;7398851;19;19919;-56
2021/12/09 00:35:58;;;;;;;;;;;;;;;;;;7398718;19;19915;-55
2021/12/09 00:38:38;;;;;;;;;;;;;;;;;;7398800;19;19925;-57
2021/12/09 00:41:09;;;;;;;;;;;;;;;;;;7398873;19;19975;-60
2021/12/09 00:43:36;;;;;;;;;;;;;;;;;;7398691;19;19922;-56
2021/12/09 00:46:04;;;;;;;;;;;;;;;;;;7396827;19;19919;-57
2021/12/09 00:48:31;;;;;;;;;;;;;;;;;;7398173;19;19911;-61
2021/12/09 00:50:59;;;;;;;;;;;;;;;;;;7397969;19;19919;-60
2021/12/09 00:53:27;;;;;;;;;;;;;;;;;;7395962;19;19922;-58
2021/12/09 00:55:54;;;;;;;;;;;;;;;;;;7397509;19;19946;-56
2021/12/09 00:58:22;;;;;;;;;;;;;;;;;;7397991;19;19925;-54
2021/12/09 01:00:49;;;;;;;;;;;;;;;;;;7397950;19;19935;-57
2021/12/09 01:03:16;;;;;;;;;;;;;;;;;;7402104;19;19925;-56
2021/12/09 01:05:44;;;;;;;;;;;;;;;;;;7396674;19;19950;-56
2021/12/09 01:08:25;;;;;;;;;;;;;;;;;;7397783;19;19944;-54
2021/12/09 01:10:52;;;;;;;;;;;;;;;;;;7398616;19;19915;-56
2021/12/09 01:13:20;;;;;;;;;;;;;;;;;;7397577;19;19919;-56
2021/12/09 01:15:47;;;;;;;;;;;;;;;;;;7397344;19;19939;-56
2021/12/09 01:18:14;;;;;;;;;;;;;;;;;;7395031;19;19918;-54
2021/12/09 01:20:41;;;;;;;;;;;;;;;;;;7397072;19;19918;-55
2021/12/09 01:23:09;;;;;;;;;;;;;;;;;;7397353;19;19919;-59
2021/12/09 01:25:37;;;;;;;;;;;;;;;;;;7392514;19;19914;-57
2021/12/09 01:28:06;;;;;;;;;;;;;;;;;;7397526;19;19919;-57
2021/12/09 01:30:33;;;;;;;;;;;;;;;;;;7396814;19;19910;-58
2021/12/09 01:33:01;;;;;;;;;;;;;;;;;;7401178;19;19956;-55
2021/12/09 01:35:31;;;;;;;;;;;;;;;;;;7396569;19;19923;-56
2021/12/09 01:38:01;;;;;;;;;;;;;;;;;;7396274;19;19942;-56
2021/12/09 01:40:29;;;;;;;;;;;;;;;;;;7396306;19;20656;-56
2021/12/09 01:42:57;;;;;;;;;;;;;;;;;;7396562;19;19930;-56
2021/12/09 01:45:24;;;;;;;;;;;;;;;;;;7393780;19;20248;-54
2021/12/09 01:47:52;;;;;;;;;;;;;;;;;;7395989;19;19917;-54
2021/12/09 01:50:20;;;;;;;;;;;;;;;;;;7396374;19;19915;-56
2021/12/09 01:52:48;;;;;;;;;;;;;;;;;;7394491;19;19941;-58
2021/12/09 01:55:16;;;;;;;;;;;;;;;;;;7396146;19;19938;-55
2021/12/09 01:57:47;;;;;;;;;;;;;;;;;;7396646;19;19917;-54
2021/12/09 02:00:16;;;;;;;;;;;;;;;;;;7395793;19;20362;-55
2021/12/09 02:02:44;;;;;;;;;;;;;;;;;;7399029;19;19935;-56
2021/12/09 02:05:24;;;;;;;;;;;;;;;;;;7395005;19;19974;-55
2021/12/09 02:07:51;;;;;;;;;;;;;;;;;;7395857;19;19922;-55
2021/12/09 02:10:19;;;;;;;;;;;;;;;;;;7395792;19;19918;-57
2021/12/09 02:12:47;;;;;;;;;;;;;;;;;;7395882;19;19921;-56
2021/12/09 02:15:15;;;;;;;;;;;;;;;;;;7395358;19;20331;-53
2021/12/09 02:17:42;;;;;;;;;;;;;;;;;;7393534;19;19929;-58
2021/12/09 02:20:10;;;;;;;;;;;;;;;;;;7395051;19;19931;-58
2021/12/09 02:22:37;;;;;;;;;;;;;;;;;;7395525;19;19915;-60
2021/12/09 02:25:05;;;;;;;;;;;;;;;;;;7395833;19;19964;-55
2021/12/09 02:27:32;;;;;;;;;;;;;;;;;;7393003;19;19934;-57
2021/12/09 02:29:59;;;;;;;;;;;;;;;;;;7394664;19;19911;-58
2021/12/09 02:32:26;;;;;;;;;;;;;;;;;;7397098;19;20340;-60
2021/12/09 02:34:53;;;;;;;;;;;;;;;;;;7395070;19;19927;-58
2021/12/09 02:37:21;;;;;;;;;;;;;;;;;;7394090;19;19914;-57
2021/12/09 02:39:48;;;;;;;;;;;;;;;;;;7394594;19;19934;-59
2021/12/09 02:42:15;;;;;;;;;;;;;;;;;;7394743;19;20362;-60
2021/12/09 02:44:45;;;;;;;;;;;;;;;;;;7394242;19;19915;-57
2021/12/09 02:47:12;;;;;;;;;;;;;;;;;;7392709;19;19915;-60
2021/12/09 02:49:39;;;;;;;;;;;;;;;;;;7394354;19;19915;-58
2021/12/09 02:52:07;;;;;;;;;;;;;;;;;;7394178;19;19915;-59
2021/12/09 02:54:34;;;;;;;;;;;;;;;;;;7397073;19;19919;-57
2021/12/09 02:57:03;;;;;;;;;;;;;;;;;;7394263;19;20227;-56
2021/12/09 02:59:32;;;;;;;;;;;;;;;;;;7393581;19;20587;-55
2021/12/09 03:02:00;;;;;;;;;;;;;;;;;;7393962;19;20508;-55
2021/12/09 03:04:40;;;;;;;;;;;;;;;;;;7394072;19;19933;-58
2021/12/09 03:07:13;;;;;;;;;;;;;;;;;;7392034;19;20034;-55
2021/12/09 03:09:48;;;;;;;;;;;;;;;;;;7393368;19;19918;-56
2021/12/09 03:12:17;;;;;;;;;;;;;;;;;;7397205;19;19918;-57
2021/12/09 03:14:44;;;;;;;;;;;;;;;;;;7393279;19;19911;-57
2021/12/09 03:17:11;;;;;;;;;;;;;;;;;;7392757;19;19921;-59
2021/12/09 03:19:39;;;;;;;;;;;;;;;;;;7393051;19;19918;-57
2021/12/09 03:22:06;;;;;;;;;;;;;;;;;;7393763;19;19915;-60
2021/12/09 03:24:34;;;;;;;;;;;;;;;;;;7392998;19;20274;-60
2021/12/09 03:27:01;;;;;;;;;;;;;;;;;;7391568;19;19921;-57
2021/12/09 03:29:29;;;;;;;;;;;;;;;;;;7393008;19;19915;-60
2021/12/09 03:31:57;;;;;;;;;;;;;;;;;;7394597;19;20331;-59
2021/12/09 03:34:28;;;;;;;;;;;;;;;;;;7393135;19;19919;-57
2021/12/09 03:36:58;;;;;;;;;;;;;;;;;;7392290;19;19915;-56
2021/12/09 03:39:27;;;;;;;;;;;;;;;;;;7392754;19;19922;-58
2021/12/09 03:41:55;;;;;;;;;;;;;;;;;;7393433;19;19971;-55
2021/12/09 03:44:22;;;;;;;;;;;;;;;;;;7392108;19;19915;-59
2021/12/09 03:46:51;;;;;;;;;;;;;;;;;;7391120;19;19925;-58
2021/12/09 03:49:18;;;;;;;;;;;;;;;;;;7390029;19;19923;-60
2021/12/09 03:51:46;;;;;;;;;;;;;;;;;;7395891;19;20362;-58
2021/12/09 03:54:13;;;;;;;;;;;;;;;;;;7392013;19;20332;-55
2021/12/09 03:56:40;;;;;;;;;;;;;;;;;;7392341;19;19938;-59
2021/12/09 03:59:10;;;;;;;;;;;;;;;;;;7392713;19;19919;-58
2021/12/09 04:01:39;;;;;;;;;;;;;;;;;;7392061;19;19926;-59
2021/12/09 04:04:07;;;;;;;;;;;;;;;;;;7392087;19;19915;-53
2021/12/09 04:06:35;;;;;;;;;;;;;;;;;;7391626;19;19941;-57
2021/12/09 04:09:04;;;;;;;;;;;;;;;;;;7391870;19;19938;-60
2021/12/09 04:11:31;;;;;;;;;;;;;;;;;;7394207;19;19991;-60
2021/12/09 04:13:58;;;;;;;;;;;;;;;;;;7391090;19;19922;-57
2021/12/09 04:16:25;;;;;;;;;;;;;;;;;;7391425;19;19974;-56
2021/12/09 04:18:53;;;;;;;;;;;;;;;;;;7391676;19;19921;-55
2021/12/09 04:21:20;;;;;;;;;;;;;;;;;;7391497;19;19915;-55
2021/12/09 04:23:47;;;;;;;;;;;;;;;;;;7389896;19;19911;-58
2021/12/09 04:26:14;;;;;;;;;;;;;;;;;;7394099;19;19926;-59
2021/12/09 04:28:43;;;;;;;;;;;;;;;;;;7391268;19;19938;-56
2021/12/09 04:31:10;;;;;;;;;;;;;;;;;;7394184;19;20030;-56
2021/12/09 04:33:38;;;;;;;;;;;;;;;;;;7391061;19;19922;-60
2021/12/09 04:36:05;;;;;;;;;;;;;;;;;;7392011;19;19914;-57
2021/12/09 04:38:32;;;;;;;;;;;;;;;;;;7390997;19;19911;-57
2021/12/09 04:41:00;;;;;;;;;;;;;;;;;;7390957;19;20261;-60
2021/12/09 04:43:27;;;;;;;;;;;;;;;;;;7390516;19;19933;-59
2021/12/09 04:45:54;;;;;;;;;;;;;;;;;;7389688;19;19921;-57
2021/12/09 04:48:22;;;;;;;;;;;;;;;;;;7395388;19;19915;-58
2021/12/09 04:50:49;;;;;;;;;;;;;;;;;;7389524;19;19911;-57
2021/12/09 04:53:16;;;;;;;;;;;;;;;;;;7388751;19;19918;-57
2021/12/09 04:55:43;;;;;;;;;;;;;;;;;;7392048;19;20264;-60
2021/12/09 04:58:10;;;;;;;;;;;;;;;;;;7390525;19;19925;-52
2021/12/09 05:00:38;;;;;;;;;;;;;;;;;;7395245;19;19923;-52
2021/12/09 05:03:09;;;;;;;;;;;;;;;;;;7398391;19;19946;-59
2021/12/09 05:05:44;;;;;;;;;;;;;;;;;;7397969;19;19993;-59
2021/12/09 05:08:13;;;;;;;;;;;;;;;;;;7395127;19;20399;-58
2021/12/09 05:10:59;;;;;;;;;;;;;;;;;;7398524;19;19990;-59
2021/12/09 05:13:27;;;;;;;;;;;;;;;;;;7397646;19;19919;-60
2021/12/09 05:15:56;;;;;;;;;;;;;;;;;;7396955;19;19911;-59
2021/12/09 05:18:23;;;;;;;;;;;;;;;;;;7394784;19;19929;-59
2021/12/09 05:20:52;;;;;;;;;;;;;;;;;;7397165;19;19923;-59
2021/12/09 05:23:20;;;;;;;;;;;;;;;;;;7396946;19;19918;-60
2021/12/09 05:25:47;;;;;;;;;;;;;;;;;;7397186;19;19911;-56
2021/12/09 05:28:18;;;;;;;;;;;;;;;;;;7394485;19;19919;-60
2021/12/09 05:33:33;;;;;;;;;;;;;;;;;;7397203;19;19960;-60
2021/12/09 05:36:00;;;;;;;;;;;;;;;;;;7396767;19;20018;-60
2021/12/09 05:38:27;;;;;;;;;;;;;;;;;;7396596;19;19919;-60
2021/12/09 05:40:54;;;;;;;;;;;;;;;;;;7396340;19;19910;-60
2021/12/09 05:43:22;;;;;;;;;;;;;;;;;;7398219;19;19984;-58
2021/12/09 05:45:50;;;;;;;;;;;;;;;;;;7396425;19;19919;-59
2021/12/09 05:48:17;;;;;;;;;;;;;;;;;;7394224;19;19978;-59
2021/12/09 05:50:45;;;;;;;;;;;;;;;;;;7396425;19;19919;-57
2021/12/09 05:53:14;;;;;;;;;;;;;;;;;;7396040;19;19926;-59
2021/12/09 05:55:43;;;;;;;;;;;;;;;;;;7395943;19;19921;-59
2021/12/09 05:58:13;;;;;;;;;;;;;;;;;;7395911;19;19922;-59
2021/12/09 06:00:40;;;;;;;;;;;;;;;;;;7395358;19;20002;-59
2021/12/09 06:03:08;;;;;;;;;;;;;;;;;;7396455;19;19915;-58
2021/12/09 06:05:36;;;;;;;;;;;;;;;;;;7396058;19;19931;-59
2021/12/09 06:08:03;;;;;;;;;;;;;;;;;;7393849;19;19997;-59
2021/12/09 06:10:33;;;;;;;;;;;;;;;;;;7392095;19;19915;-59
2021/12/09 06:13:01;;;;;;;;;;;;;;;;;;7390861;19;20497;-59
2021/12/09 06:15:28;;;;;;;;;;;;;;;;;;7395251;19;19907;-59
2021/12/09 06:17:55;;;;;;;;;;;;;;;;;;7393463;19;19938;-60
2021/12/09 06:20:24;;;;;;;;;;;;;;;;;;7395557;19;19917;-58
2021/12/09 06:22:51;;;;;;;;;;;;;;;;;;7395164;19;19938;-60
2021/12/09 06:25:19;;;;;;;;;;;;;;;;;;7395032;19;19915;-60
2021/12/09 06:27:48;;;;;;;;;;;;;;;;;;7393186;19;19914;-59
2021/12/09 06:30:16;;;;;;;;;;;;;;;;;;7395050;19;19915;-58
2021/12/09 06:32:43;;;;;;;;;;;;;;;;;;7398016;19;19918;-58
2021/12/09 06:35:11;;;;;;;;;;;;;;;;;;7394769;19;19921;-59
2021/12/09 06:37:43;;;;;;;;;;;;;;;;;;7394491;19;19915;-59
2021/12/09 06:40:13;;;;;;;;;;;;;;;;;;7397693;19;19919;-60
2021/12/09 06:42:41;;;;;;;;;;;;;;;;;;7394075;19;19938;-59
2021/12/09 06:45:08;;;;;;;;;;;;;;;;;;7394489;19;19949;-58
2021/12/09 06:47:36;;;;;;;;;;;;;;;;;;7394039;19;20703;-58
2021/12/09 06:50:04;;;;;;;;;;;;;;;;;;7394059;19;19914;-59
2021/12/09 06:52:31;;;;;;;;;;;;;;;;;;7394347;19;19968;-58
2021/12/09 06:55:03;;;;;;;;;;;;;;;;;;7394399;19;20356;-57
2021/12/09 06:57:30;;;;;;;;;;;;;;;;;;7394034;19;19966;-60
2021/12/09 06:59:57;;;;;;;;;;;;;;;;;;7393984;19;19938;-59
2021/12/09 07:02:24;;;;;;;;;;;;;;;;;;7393820;19;19919;-59
2021/12/09 07:04:52;;;;;;;;;;;;;;;;;;7393611;19;19923;-60
2021/12/09 07:07:19;;;;;;;;;;;;;;;;;;7392737;19;19938;-61
2021/12/09 07:09:46;;;;;;;;;;;;;;;;;;7393517;19;20365;-53
2021/12/09 07:12:13;;;;;;;;;;;;;;;;;;7397867;19;19918;-58
2021/12/09 07:14:43;;;;;;;;;;;;;;;;;;7392928;19;19923;-61
2021/12/09 07:17:11;;;;;;;;;;;;;;;;;;7395130;19;19978;-60
2021/12/09 07:19:38;;;;;;;;;;;;;;;;;;7393315;19;19925;-60
2021/12/09 07:22:06;;;;;;;;;;;;;;;;;;7393568;19;19922;-59
2021/12/09 07:24:33;;;;;;;;;;;;;;;;;;7390832;19;19918;-59
2021/12/09 07:27:00;;;;;;;;;;;;;;;;;;7392697;19;19922;-60
2021/12/09 07:29:28;;;;;;;;;;;;;;;;;;7392909;19;19934;-59
2021/12/09 07:31:55;;;;;;;;;;;;;;;;;;7394805;19;19942;-58
2021/12/09 07:34:22;;;;;;;;;;;;;;;;;;7392016;19;19982;-60
2021/12/09 07:36:50;;;;;;;;;;;;;;;;;;7397089;19;19918;-61
2021/12/09 07:39:17;;;;;;;;;;;;;;;;;;7393004;19;19926;-59
2021/12/09 07:41:44;;;;;;;;;;;;;;;;;;7392642;19;19914;-59
2021/12/09 07:44:13;;;;;;;;;;;;;;;;;;7392444;19;19919;-58
2021/12/09 07:46:43;;;;;;;;;;;;;;;;;;7392541;19;20327;-59
2021/12/09 07:49:10;;;;;;;;;;;;;;;;;;7392416;19;19926;-58
2021/12/09 07:51:39;;;;;;;;;;;;;;;;;;7392597;19;19915;-56
2021/12/09 07:54:06;;;;;;;;;;;;;;;;;;7392452;19;19911;-58
2021/12/09 07:56:33;;;;;;;;;;;;;;;;;;7392331;19;19915;-59
2021/12/09 07:59:00;;;;;;;;;;;;;;;;;;7392175;19;19977;-60
2021/12/09 08:01:29;;;;;;;;;;;;;;;;;;7391671;19;19926;-58
2021/12/09 08:03:56;;;;;;;;;;;;;;;;;;7392081;19;19919;-60
2021/12/09 08:06:24;;;;;;;;;;;;;;;;;;7390438;19;19915;-60
2021/12/09 08:08:51;;;;;;;;;;;;;;;;;;7390406;19;19918;-61
2021/12/09 08:11:18;;;;;;;;;;;;;;;;;;7394083;19;19918;-58
2021/12/09 08:13:45;;;;;;;;;;;;;;;;;;7391382;19;19931;-58
2021/12/09 08:16:13;;;;;;;;;;;;;;;;;;7390479;19;20264;-59
2021/12/09 08:18:55;;;;;;;;;;;;;;;;;;7392053;19;19918;-59
2021/12/09 08:21:24;;;;;;;;;;;;;;;;;;7391496;19;19938;-60
2021/12/09 08:23:53;;;;;;;;;;;;;;;;;;7391381;19;19921;-60
2021/12/09 08:26:21;;;;;;;;;;;;;;;;;;7390739;19;19911;-60
2021/12/09 08:28:48;;;;;;;;;;;;;;;;;;7388576;19;19934;-60
2021/12/09 08:31:15;;;;;;;;;;;;;;;;;;7391272;19;19919;-59
2021/12/09 08:33:42;;;;;;;;;;;;;;;;;;7391397;19;19922;-59
2021/12/09 08:36:30;;;;;;;;;;;;;;;;;;7398597;19;19915;-60
2021/12/09 08:38:57;;;;;;;;;;;;;;;;;;7398428;19;19975;-60
2021/12/09 08:41:25;;;;;;;;;;;;;;;;;;7398334;19;19911;-57
2021/12/09 08:43:52;;;;;;;;;;;;;;;;;;7398336;19;19926;-59
2021/12/09 08:46:20;;;;;;;;;;;;;;;;;;7397930;19;19926;-59
2021/12/09 08:48:47;;;;;;;;;;;;;;;;;;7395993;19;20262;-60
2021/12/09 08:51:15;;;;;;;;;;;;;;;;;;7398045;19;19926;-60
2021/12/09 08:53:42;;;;;;;;;;;;;;;;;;7399789;19;20259;-61
2021/12/09 08:56:09;;;;;;;;;;;;;;;;;;7398408;19;19926;-60
2021/12/09 08:58:37;;;;;;;;;;;;;;;;;;7398370;19;19963;-59
2021/12/09 09:01:04;;;;;;;;;;;;;;;;;;7397577;19;19924;-58
2021/12/09 09:03:32;;;;;;;;;;;;;;;;;;7397943;19;19930;-61
2021/12/09 09:06:01;;;;;;;;;;;;;;;;;;7397562;19;20745;-57
2021/12/09 09:08:29;;;;;;;;;;;;;;;;;;7396285;19;19927;-60
2021/12/09 09:10:56;;;;;;;;;;;;;;;;;;7401029;19;20514;-52
2021/12/09 09:13:23;;;;;;;;;;;;;;;;;;7397498;19;19935;-55
2021/12/09 09:15:51;;;;;;;;;;;;;;;;;;7396955;19;19935;-58
2021/12/09 09:18:19;;;;;;;;;;;;;;;;;;7395061;19;19923;-58
2021/12/09 09:20:47;;;;;;;;;;;;;;;;;;7396944;19;20355;-57
2021/12/09 09:23:17;;;;;;;;;;;;;;;;;;7397119;19;19915;-56
2021/12/09 09:25:44;;;;;;;;;;;;;;;;;;7397071;19;19926;-58
2021/12/09 09:28:12;;;;;;;;;;;;;;;;;;7398240;19;20342;-56
2021/12/09 09:30:43;;;;;;;;;;;;;;;;;;7397364;19;20363;-57
2021/12/09 09:33:12;;;;;;;;;;;;;;;;;;7399767;19;19918;-58
2021/12/09 09:35:39;;;;;;;;;;;;;;;;;;7397060;19;19923;-56
2021/12/09 09:38:07;;;;;;;;;;;;;;;;;;7397140;19;19915;-54
2021/12/09 09:40:40;;;;;;;;;;;;;;;;;;7396646;19;19911;-59
2021/12/09 09:43:26;;;;;;;;;;;;;;;;;;7396731;19;19915;-53
2021/12/09 09:46:00;;;;;;;;;;;;;;;;;;7395197;19;20357;-59
2021/12/09 09:48:29;;;;;;;;;;;;;;;;;;7395019;19;19994;-55
2021/12/09 09:50:57;;;;;;;;;;;;;;;;;;7396663;19;19915;-56
2021/12/09 09:53:24;;;;;;;;;;;;;;;;;;7396166;19;20018;-55
2021/12/09 09:55:51;;;;;;;;;;;;;;;;;;7395436;19;19918;-58
2021/12/09 09:58:18;;;;;;;;;;;;;;;;;;7395825;19;19923;-58
2021/12/09 10:00:46;;;;;;;;;;;;;;;;;;7396040;19;19923;-58
2021/12/09 10:03:17;;;;;;;;;;;;;;;;;;7395722;19;19919;-57
2021/12/09 10:05:46;;;;;;;;;;;;;;;;;;7395825;19;19922;-56
2021/12/09 10:08:14;;;;;;;;;;;;;;;;;;7394994;19;19915;-56
2021/12/09 10:10:42;;;;;;;;;;;;;;;;;;7396574;19;19922;-57
2021/12/09 10:13:10;;;;;;;;;;;;;;;;;;7396111;19;19978;-57
2021/12/09 10:15:40;;;;;;;;;;;;;;;;;;7396253;19;19910;-56
2021/12/09 10:18:08;;;;;;;;;;;;;;;;;;7394623;19;20267;-56
2021/12/09 10:20:50;;;;;;;;;;;;;;;;;;7393643;19;19910;-55
2021/12/09 10:23:21;;;;;;;;;;;;;;;;;;7394955;19;20342;-53
2021/12/09 10:26:07;;;;;;;;;;;;;;;;;;7399525;19;19914;-56
2021/12/09 10:28:35;;;;;;;;;;;;;;;;;;7393994;19;19945;-54
2021/12/09 10:31:11;;;;;;;;;;;;;;;;;;7395696;19;19917;-56
2021/12/09 10:34:09;;;;;;;;;;;;;;;;;;7393443;19;19911;-56
2021/12/09 10:36:51;;;;;;;;;;;;;;;;;;7394281;19;19932;-56
2021/12/09 10:39:21;;;;;;;;;;;;;;;;;;7394745;19;19935;-56
2021/12/09 10:41:48;;;;;;;;;;;;;;;;;;7393939;19;19930;-55
2021/12/09 10:44:16;;;;;;;;;;;;;;;;;;7394443;19;19918;-55
2021/12/09 10:46:53;;;;;;;;;;;;;;;;;;7393803;19;19919;-56
2021/12/09 10:49:22;;;;;;;;;;;;;;;;;;7392361;19;19910;-53
2021/12/09 10:51:57;;;;;;;;;;;;;;;;;;7393994;19;19915;-54
2021/12/09 10:54:32;;;;;;;;;;;;;;;;;;7393711;19;19946;-57
2021/12/09 10:57:18;;;;;;;;;;;;;;;;;;7394059;19;20353;-55
2021/12/09 10:59:45;;;;;;;;;;;;;;;;;;7393655;19;19911;-56
2021/12/09 11:02:12;;;;;;;;;;;;;;;;;;7393203;19;19922;-57
2021/12/09 11:04:40;;;;;;;;;;;;;;;;;;7395333;19;19915;-58
2021/12/09 11:07:29;;;;;;;;;;;;;;;;;;7394019;19;19935;-56
2021/12/09 11:10:16;;;;;;;;;;;;;;;;;;7394694;19;19918;-56
2021/12/09 11:12:57;;;;;;;;;;;;;;;;;;7394058;19;19911;-56
2021/12/09 11:15:53;;;;;;;;;;;;;;;;;;7393792;19;19946;-58
2021/12/09 11:18:32;;;;;;;;;;;;;;;;;;7392080;19;19946;-58
2021/12/09 11:21:01;;;;;;;;;;;;;;;;;;7395349;19;19941;-58
2021/12/09 11:23:31;;;;;;;;;;;;;;;;;;7393049;19;19926;-60
2021/12/09 11:26:17;;;;;;;;;;;;;;;;;;7393276;19;19919;-58
2021/12/09 11:28:59;;;;;;;;;;;;;;;;;;7391984;19;19926;-58
2021/12/09 11:31:30;;;;;;;;;;;;;;;;;;7393939;19;19934;-56
2021/12/09 11:34:06;;;;;;;;;;;;;;;;;;7391933;19;19986;-60
2021/12/09 11:36:45;;;;;;;;;;;;;;;;;;7392842;19;19922;-62
2021/12/09 11:39:19;;;;;;;;;;;;;;;;;;7392131;19;19921;-60
2021/12/09 11:41:47;;;;;;;;;;;;;;;;;;7392530;19;19915;-55
2021/12/09 11:44:16;;;;;;;;;;;;;;;;;;7392566;19;19929;-60
2021/12/09 11:46:44;;;;;;;;;;;;;;;;;;7392119;19;19931;-53
2021/12/09 11:49:12;;;;;;;;;;;;;;;;;;7391488;19;19919;-54
2021/12/09 11:51:40;;;;;;;;;;;;;;;;;;7392739;19;19914;-59
2021/12/09 11:54:09;;;;;;;;;;;;;;;;;;7392354;19;19915;-58
2021/12/09 11:56:45;;;;;;;;;;;;;;;;;;7392600;19;19911;-60
2021/12/09 12:13:33;;;;;;;;;;;;;;;;;;7399970;19;19914;-56
2021/12/09 12:16:20;;;;;;;;;;;;;;;;;;7399969;19;19914;-53
2021/12/09 12:18:59;;;;;;;;;;;;;;;;;;7399714;19;19911;-57
2021/12/09 12:24:21;;;;;;;;;;;;;;;;;;7398802;19;19926;-55
2021/12/09 12:27:03;;;;;;;;;;;;;;;;;;7399339;19;19919;-59
2021/12/09 12:30:23;;;;;;;;;;;;;;;;;;7396897;19;20023;-59
2021/12/09 12:38:12;;;;;;;;;;;;;;;;;;7400755;19;19919;-61
2021/12/09 12:40:43;;;;;;;;;;;;;;;;;;7398080;19;20252;-61
2021/12/09 12:43:22;;;;;;;;;;;;;;;;;;7398631;19;19907;-61
2021/12/09 12:45:58;;;;;;;;;;;;;;;;;;7398512;19;19922;-56
2021/12/09 12:48:44;;;;;;;;;;;;;;;;;;7397397;19;19915;-57
2021/12/09 12:51:15;;;;;;;;;;;;;;;;;;7398610;19;19922;-61
2021/12/09 12:53:43;;;;;;;;;;;;;;;;;;7398462;19;20473;-59
2021/12/09 12:56:14;;;;;;;;;;;;;;;;;;7398338;19;19911;-59
2021/12/09 12:58:59;;;;;;;;;;;;;;;;;;7398290;19;19939;-61
2021/12/09 13:01:27;;;;;;;;;;;;;;;;;;7397872;19;19971;-56
2021/12/09 13:03:58;;;;;;;;;;;;;;;;;;7397612;19;19963;-63
2021/12/09 13:06:49;;;;;;;;;;;;;;;;;;7397914;19;19941;-58
2021/12/09 13:09:29;;;;;;;;;;;;;;;;;;7396349;19;20029;-60
2021/12/09 13:12:06;;;;;;;;;;;;;;;;;;7400345;19;19926;-60
2021/12/09 13:14:58;;;;;;;;;;;;;;;;;;7402191;19;19978;-59
2021/12/09 13:17:41;;;;;;;;;;;;;;;;;;7395145;19;20339;-59
2021/12/09 13:20:25;;;;;;;;;;;;;;;;;;7397725;19;19917;-57
2021/12/09 13:23:11;;;;;;;;;;;;;;;;;;7397545;19;19922;-54
2021/12/09 13:25:51;;;;;;;;;;;;;;;;;;7397924;19;19911;-54
2021/12/09 13:28:34;;;;;;;;;;;;;;;;;;7396443;19;19922;-58
2021/12/09 13:31:10;;;;;;;;;;;;;;;;;;7397809;19;19922;-60
2021/12/09 13:33:53;;;;;;;;;;;;;;;;;;7397120;19;19922;-58
2021/12/09 13:50:10;;;;;;;;;;;;;;;;;;7393298;19;19911;-60
2021/12/09 13:55:11;;;;;;;;;;;;;;;;;;7396368;19;19919;-58
2021/12/09 13:57:41;;;;;;;;;;;;;;;;;;7397014;19;19930;-59
2021/12/09 14:00:27;;;;;;;;;;;;;;;;;;7395618;19;19932;-61
2021/12/09 14:02:55;;;;;;;;;;;;;;;;;;7397028;19;19924;-61
2021/12/09 14:05:23;;;;;;;;;;;;;;;;;;7399562;19;20263;-60
2021/12/09 14:08:00;;;;;;;;;;;;;;;;;;7395689;19;19910;-60
2021/12/09 14:10:30;;;;;;;;;;;;;;;;;;7396656;19;19915;-60
2021/12/09 14:13:03;;;;;;;;;;;;;;;;;;7394461;19;19915;-61
2021/12/09 14:15:39;;;;;;;;;;;;;;;;;;7395398;19;19953;-61
2021/12/09 14:18:14;;;;;;;;;;;;;;;;;;7393443;19;19934;-61
2021/12/09 14:20:42;;;;;;;;;;;;;;;;;;7394129;19;19922;-60
2021/12/09 14:23:10;;;;;;;;;;;;;;;;;;7395895;19;19974;-60
2021/12/09 14:25:37;;;;;;;;;;;;;;;;;;7394920;19;19915;-61
2021/12/09 14:28:15;;;;;;;;;;;;;;;;;;7395027;19;19915;-59
2021/12/09 14:30:45;;;;;;;;;;;;;;;;;;7395693;19;19919;-60
2021/12/09 14:33:13;;;;;;;;;;;;;;;;;;7393304;19;20354;-60
2021/12/09 14:35:46;;;;;;;;;;;;;;;;;;7395417;19;19974;-61
2021/12/09 14:38:14;;;;;;;;;;;;;;;;;;7394680;19;19925;-59
2021/12/09 14:40:56;;;;;;;;;;;;;;;;;;7394953;19;19915;-59
2021/12/09 14:43:26;;;;;;;;;;;;;;;;;;7395455;19;19919;-60
2021/12/09 14:46:04;;;;;;;;;;;;;;;;;;7394191;19;20339;-61
2021/12/09 14:48:33;;;;;;;;;;;;;;;;;;7394027;19;19946;-62
2021/12/09 14:51:21;;;;;;;;;;;;;;;;;;7394515;19;19915;-61
2021/12/09 14:53:53;;;;;;;;;;;;;;;;;;7394116;19;19915;-60
2021/12/09 14:56:23;;;;;;;;;;;;;;;;;;7394043;19;19919;-60
2021/12/09 14:58:51;;;;;;;;;;;;;;;;;;7393683;19;20260;-61
2021/12/09 15:01:22;;;;;;;;;;;;;;;;;;7393856;19;19911;-59
2021/12/09 15:03:58;;;;;;;;;;;;;;;;;;7393849;19;19911;-61
2021/12/09 15:06:30;;;;;;;;;;;;;;;;;;7393852;19;19935;-60
2021/12/09 15:09:08;;;;;;;;;;;;;;;;;;7393111;19;20340;-60
2021/12/09 15:11:37;;;;;;;;;;;;;;;;;;7396267;19;19915;-59
2021/12/09 15:14:10;;;;;;;;;;;;;;;;;;7393040;19;19919;-61
2021/12/09 15:16:38;;;;;;;;;;;;;;;;;;7393207;19;19936;-61
2021/12/09 15:19:16;;;;;;;;;;;;;;;;;;7393463;19;19946;-61
2021/12/09 15:21:59;;;;;;;;;;;;;;;;;;7393251;19;19939;-61
2021/12/09 15:24:26;;;;;;;;;;;;;;;;;;7392915;19;19935;-61
2021/12/09 15:26:54;;;;;;;;;;;;;;;;;;7393356;19;19981;-60
2021/12/09 15:29:22;;;;;;;;;;;;;;;;;;7392490;19;19922;-60
2021/12/09 15:31:58;;;;;;;;;;;;;;;;;;7392835;19;19914;-60
2021/12/09 15:34:36;;;;;;;;;;;;;;;;;;7391532;19;19911;-59
2021/12/09 15:37:12;;;;;;;;;;;;;;;;;;7392920;19;19956;-60
2021/12/09 15:39:49;;;;;;;;;;;;;;;;;;7392456;19;20332;-59
2021/12/09 15:42:22;;;;;;;;;;;;;;;;;;7392756;19;19918;-55
2021/12/09 15:44:51;;;;;;;;;;;;;;;;;;7390173;19;19922;-61
2021/12/09 15:47:20;;;;;;;;;;;;;;;;;;7392069;19;19922;-60
2021/12/09 15:49:50;;;;;;;;;;;;;;;;;;7391481;19;19926;-60
2021/12/09 15:52:20;;;;;;;;;;;;;;;;;;7391805;19;19934;-60
2021/12/09 15:54:52;;;;;;;;;;;;;;;;;;7395909;19;19911;-58
2021/12/09 15:57:39;;;;;;;;;;;;;;;;;;7392482;19;19919;-53
2021/12/09 16:00:08;;;;;;;;;;;;;;;;;;7393143;19;19911;-61
2021/12/09 16:02:37;;;;;;;;;;;;;;;;;;7393314;19;19948;-60
2021/12/09 16:05:06;;;;;;;;;;;;;;;;;;7391765;19;20355;-61
2021/12/09 16:07:33;;;;;;;;;;;;;;;;;;7393244;19;19926;-60
2021/12/09 16:10:04;;;;;;;;;;;;;;;;;;7389939;19;19942;-61
2021/12/09 16:12:41;;;;;;;;;;;;;;;;;;7391971;19;19966;-62
2021/12/09 16:15:19;;;;;;;;;;;;;;;;;;7391229;19;19915;-66
2021/12/09 16:17:53;;;;;;;;;;;;;;;;;;7390423;19;20016;-60
2021/12/09 16:20:33;;;;;;;;;;;;;;;;;;7391549;19;19919;-60
2021/12/09 16:23:03;;;;;;;;;;;;;;;;;;7392151;19;19914;-59
2021/12/09 16:25:30;;;;;;;;;;;;;;;;;;7391616;19;19915;-60
2021/12/09 16:27:58;;;;;;;;;;;;;;;;;;7391143;19;19946;-59
2021/12/09 16:30:26;;;;;;;;;;;;;;;;;;7388388;19;19915;-60
2021/12/09 16:32:53;;;;;;;;;;;;;;;;;;7391448;19;19939;-60
2021/12/09 16:35:25;;;;;;;;;;;;;;;;;;7391296;19;20328;-59
2021/12/09 16:37:53;;;;;;;;;;;;;;;;;;7391399;19;20348;-59
2021/12/09 16:40:25;;;;;;;;;;;;;;;;;;7390360;19;19919;-60
2021/12/09 16:42:53;;;;;;;;;;;;;;;;;;7391414;19;19918;-60
2021/12/09 16:45:22;;;;;;;;;;;;;;;;;;7390829;19;19939;-58
2021/12/09 16:47:50;;;;;;;;;;;;;;;;;;7390996;19;19926;-62
2021/12/09 16:50:18;;;;;;;;;;;;;;;;;;7388150;19;19911;-59
2021/12/09 16:52:46;;;;;;;;;;;;;;;;;;7390069;19;20010;-59
2021/12/09 16:55:18;;;;;;;;;;;;;;;;;;7391292;19;19911;-59
2021/12/09 16:57:51;;;;;;;;;;;;;;;;;;7398197;19;19982;-59
2021/12/09 17:00:30;;;;;;;;;;;;;;;;;;7397614;19;19915;-59
2021/12/09 17:03:00;;;;;;;;;;;;;;;;;;7398328;19;19988;-55
2021/12/09 17:05:29;;;;;;;;;;;;;;;;;;7397616;19;19919;-57
2021/12/09 17:07:56;;;;;;;;;;;;;;;;;;7397751;19;19935;-60
2021/12/09 17:10:26;;;;;;;;;;;;;;;;;;7396777;19;19918;-57
2021/12/09 17:12:53;;;;;;;;;;;;;;;;;;7397966;19;19936;-60
2021/12/09 17:15:21;;;;;;;;;;;;;;;;;;7397557;19;19922;-59
2021/12/09 17:17:49;;;;;;;;;;;;;;;;;;7395341;19;19922;-59
2021/12/09 17:20:18;;;;;;;;;;;;;;;;;;7396690;19;19925;-59
2021/12/09 17:22:47;;;;;;;;;;;;;;;;;;7397195;19;19974;-57
2021/12/09 17:25:16;;;;;;;;;;;;;;;;;;7397529;19;19925;-59
2021/12/09 17:27:44;;;;;;;;;;;;;;;;;;7397040;19;19934;-59
2021/12/09 17:30:12;;;;;;;;;;;;;;;;;;7396029;19;19922;-58
2021/12/09 17:32:42;;;;;;;;;;;;;;;;;;7397850;19;19914;-60
2021/12/09 17:35:12;;;;;;;;;;;;;;;;;;7397416;19;19939;-59
2021/12/09 17:37:41;;;;;;;;;;;;;;;;;;7397119;19;19946;-54
2021/12/09 17:40:09;;;;;;;;;;;;;;;;;;7396508;19;20268;-58
2021/12/09 17:42:37;;;;;;;;;;;;;;;;;;7395891;19;20319;-59
2021/12/09 17:45:05;;;;;;;;;;;;;;;;;;7395610;19;19982;-53
2021/12/09 17:47:33;;;;;;;;;;;;;;;;;;7396502;19;19919;-60
2021/12/09 17:50:02;;;;;;;;;;;;;;;;;;7395238;19;19929;-62